TFM - Tactical Decision Aid
ID: Runway Winds: CIG/VIS Threshold:

KCVG - Cincinnati Intl, KY, US

Updated at: 2058 UTC 17 Jun 2019
Latest TAF at: 1734 UTC 17 Jun 2019

TAF Board

Time2052Z 17/21Z 17/22Z 17/23Z 18/00Z 18/01Z 18/02Z 18/03Z 18/04Z 18/05Z 18/06Z 18/07Z 18/08Z 18/09Z>>
Type OBS PRVL PRVL
  [TEMP]  
PRVL
  [TEMP]  
PRVL
  [TEMP]  
PRVL PRVL PRVL PRVL PRVL PRVL PRVL PRVL PRVL
VIS 9 >6 >6
  [4]  
>6
  [4]  
>6
  [4]  
>6 >6 4 4 4 4 4 4 4
CIG 140 40 40
  [30]  
40
  [30]  
40
  [30]  
40 40 100 100 100 8 8 8 8
Cover OVC BKN BKN
  [OVC]  
BKN
  [OVC]  
BKN
  [OVC]  
BKN BKN BKN BKN BKN BKN BKN BKN BKN
FltCat VFR VFR VFR
  [MVFR]  
VFR
  [MVFR]  
VFR
  [MVFR]  
VFR VFR MVFR MVFR MVFR IFR IFR IFR IFR
WX -- VCTS VCTS
  [TSRA]  
VCTS
  [TSRA]  
VCTS
  [TSRA]  
VCTS VCTS BR VCTS BR VCTS BR VCTS BR VCSH BR VCSH BR VCSH BR VCSH
WDir 210 220 220
[220]
220
[220]
220
[220]
220 220 210 210 210 VRB VRB VRB VRB
WSpd 6 6 6
  [6]  
6
  [6]  
6
  [6]  
6 6 4 4 4 3 3 3 3
WGst -- -- --
  [--]  
--
  [--]  
--
  [--]  
-- -- -- -- -- -- -- -- --

TDA Impact Legend

  None Marginal Slight Moderate High
Visibility (sm) >5 3≤X≤5 1≤X<3 0.5≤X<1 <0.5
Ceiling (100 ft) >30 10≤X≤30 4≤X<10 2≤X<4 <2
Wind Speed (kt) <15 15≤X<25 25≤X<30 ≥30
Wind Gust (kt) <15 15≤X<25 25≤X<35 ≥35
Weather No Wx Reported VCTS -TS,-FZRA TS,FZRA +TS,+FZRA
TAF
KCVG 171734Z 1718/1824 22004KT P6SM VCSH SCT015 BKN110
  FM172100 22006KT P6SM VCTS BKN040CB BKN100
  TEMPO 1722/1801 4SM TSRA OVC030CB
  FM180300 21004KT 4SM BR VCTS SCT035CB BKN100
  FM180600 VRB03KT 4SM BR VCSH BKN008 BKN025
  FM181400 19006KT P6SM VCSH SCT008 BKN025
  FM181800 19006KT P6SM VCTS SCT025 BKN040CB


METAR
KCVG 172052Z 21006KT 9SM SCT022 BKN140 OVC180 26/21 A2995 RMK AO2 SLP131 TCU DSNT N-NE 60000 T02610206 58012
KCVG 171952Z 18010KT 9SM FEW020 SCT075 BKN150 OVC250 26/21 A2997 RMK AO2 SLP137 ACC E MDT CU DSNT N-NE T02610211
KCVG 171924Z 18009KT 9SM SCT020 BKN100 OVC160 26/21 A2997 RMK AO2 MDT CU N-E T02610211
KCVG 171852Z 20009KT 8SM SCT016 BKN025 OVC120 26/22 A2998 RMK AO2 RAB1756E14B31E41 SLP141 BKN V SCT P0000 T02610217
KCVG 171831Z 21007KT 8SM -RA BKN021 BKN038 OVC110 26/21 A2998 RMK AO2 RAB1756E14B31 P0000 T02610211
KCVG 171752Z 22006KT 9SM FEW022 SCT028 BKN100 OVC150 26/20 A2998 RMK AO2 SLP143 SHRS SW T02610200 10272 20200 58005

Radar Display
Forecast Discussion